Time,TemperatureF,DewpointF,PressureIn,WindDirection,WindDirectionDegrees,WindSpeedMPH,WindSpeedGustMPH,Humidity,HourlyPrecipIn,Conditions,Clouds,dailyrainin,SoftwareType,DateUTC
2013-01-20 00:10:00,34.9,24.3,29.69,NNW,337,0.0,-999.0,65,-99.99,,,0.00,Acu-Link.com,2013-01-20 05:10:00,
2013-01-20 00:25:00,34.0,23.5,29.68,West,270,1.7,-999.0,65,-99.99,,,0.00,Acu-Link.com,2013-01-20 05:25:00,
2013-01-20 00:41:00,33.6,23.8,29.67,West,270,2.2,-999.0,67,-99.99,,,0.00,Acu-Link.com,2013-01-20 05:41:00,
2013-01-20 00:56:00,33.1,22.6,29.67,SW,225,0.0,-999.0,65,-99.99,,,0.00,Acu-Link.com,2013-01-20 05:56:00,
2013-01-20 01:11:00,33.1,23.4,29.66,NW,315,0.0,-999.0,67,-99.99,,,0.00,Acu-Link.com,2013-01-20 06:11:00,
2013-01-20 01:26:00,33.4,22.2,29.66,SSW,202,1.1,-999.0,63,-99.99,,,0.00,Acu-Link.com,2013-01-20 06:26:00,
2013-01-20 01:42:00,36.0,22.3,29.65,NNE,22,1.1,-999.0,57,-99.99,,,0.00,Acu-Link.com,2013-01-20 06:42:00,
2013-01-20 01:57:00,40.3,22.7,29.65,NW,315,0.0,-999.0,49,-99.99,,,0.00,Acu-Link.com,2013-01-20 06:57:00,
2013-01-20 02:12:00,43.2,22.8,29.64,WNW,292,2.7,-999.0,44,-99.99,,,0.00,Acu-Link.com,2013-01-20 07:12:00,
2013-01-20 02:27:00,43.5,23.1,29.63,NE,45,4.7,-999.0,44,-99.99,,,0.00,Acu-Link.com,2013-01-20 07:27:00,
2013-01-20 02:42:00,43.7,23.8,29.62,West,270,1.7,-999.0,45,-99.99,,,0.00,Acu-Link.com,2013-01-20 07:42:00,
2013-01-20 02:58:00,44.4,24.4,29.62,SE,135,2.7,-999.0,45,-99.99,,,0.00,Acu-Link.com,2013-01-20 07:58:00,
2013-01-20 03:13:00,44.4,24.4,29.61,SW,225,4.7,-999.0,45,-99.99,,,0.00,Acu-Link.com,2013-01-20 08:13:00,
2013-01-20 03:28:00,43.7,24.8,29.60,SSW,202,1.1,-999.0,47,-99.99,,,0.00,Acu-Link.com,2013-01-20 08:28:00,
2013-01-20 03:43:00,43.7,25.3,29.59,West,270,3.7,-999.0,48,-99.99,,,0.00,Acu-Link.com,2013-01-20 08:43:00,
2013-01-20 03:58:00,43.5,25.6,29.58,SW,225,2.7,-999.0,49,-99.99,,,0.00,Acu-Link.com,2013-01-20 08:58:00,
2013-01-20 04:15:00,43.5,26.1,29.58,WNW,292,5.3,-999.0,50,-99.99,,,0.00,Acu-Link.com,2013-01-20 09:15:00,
2013-01-20 04:30:00,43.3,26.9,29.57,SSE,157,2.2,-999.0,52,-99.99,,,0.00,Acu-Link.com,2013-01-20 09:30:00,
2013-01-20 04:45:00,43.5,27.1,29.57,WSW,247,1.7,-999.0,52,-99.99,,,0.00,Acu-Link.com,2013-01-20 09:45:00,
2013-01-20 05:00:00,43.3,27.3,29.55,SW,225,1.7,-999.0,53,-99.99,,,0.00,Acu-Link.com,2013-01-20 10:00:00,
2013-01-20 05:15:00,43.2,27.7,29.56,WSW,247,2.7,-999.0,54,-99.99,,,0.00,Acu-Link.com,2013-01-20 10:15:00,
2013-01-20 05:31:00,43.0,28.0,29.55,West,270,2.7,-999.0,55,-99.99,,,0.00,Acu-Link.com,2013-01-20 10:31:00,
2013-01-20 05:46:00,42.8,28.2,29.55,NNW,337,2.2,-999.0,56,-99.99,,,0.00,Acu-Link.com,2013-01-20 10:46:00,
2013-01-20 06:01:00,42.6,28.9,29.56,ESE,112,1.7,-999.0,58,-99.99,,,0.00,Acu-Link.com,2013-01-20 11:01:00,
2013-01-20 06:16:00,43.5,28.9,29.56,SW,225,2.7,-999.0,56,-99.99,,,0.00,Acu-Link.com,2013-01-20 11:16:00,
2013-01-20 06:31:00,44.2,29.5,29.55,West,270,2.7,-999.0,56,-99.99,,,0.00,Acu-Link.com,2013-01-20 11:31:00,
2013-01-20 06:47:00,44.8,29.6,29.55,NNE,22,2.2,-999.0,55,-99.99,,,0.00,Acu-Link.com,2013-01-20 11:47:00,
2013-01-20 07:02:00,44.8,29.6,29.55,SSW,202,5.3,-999.0,55,-99.99,,,0.00,Acu-Link.com,2013-01-20 12:02:00,
2013-01-20 07:17:00,45.0,29.8,29.55,SW,225,8.3,-999.0,55,-99.99,,,0.00,Acu-Link.com,2013-01-20 12:17:00,
2013-01-20 07:32:00,45.0,30.3,29.54,NW,315,3.2,-999.0,56,-99.99,,,0.00,Acu-Link.com,2013-01-20 12:32:00,
2013-01-20 07:47:00,45.5,29.4,29.55,SSE,157,3.2,-999.0,53,-99.99,,,0.00,Acu-Link.com,2013-01-20 12:47:00,
2013-01-20 08:03:00,45.1,29.5,29.56,WSW,247,6.8,-999.0,54,-99.99,,,0.00,Acu-Link.com,2013-01-20 13:03:00,
2013-01-20 08:18:00,45.1,28.5,29.55,SW,225,4.2,-999.0,52,-99.99,,,0.00,Acu-Link.com,2013-01-20 13:18:00,
2013-01-20 08:33:00,45.9,26.8,29.56,SW,225,5.3,-999.0,47,-99.99,,,0.00,Acu-Link.com,2013-01-20 13:33:00,
2013-01-20 08:48:00,46.8,26.6,29.58,WSW,247,4.2,-999.0,45,-99.99,,,0.00,Acu-Link.com,2013-01-20 13:48:00,
2013-01-20 09:04:00,44.6,20.6,29.61,SSW,202,5.8,-999.0,38,-99.99,,,0.00,Acu-Link.com,2013-01-20 14:04:00,
2013-01-20 09:19:00,45.5,19.5,29.63,West,270,10.9,-999.0,35,-99.99,,,0.00,Acu-Link.com,2013-01-20 14:19:00,
2013-01-20 09:34:00,47.1,20.9,29.64,WSW,247,3.7,-999.0,35,-99.99,,,0.00,Acu-Link.com,2013-01-20 14:34:00,
2013-01-20 09:49:00,46.2,20.1,29.66,SSW,202,2.2,-999.0,35,-99.99,,,0.00,Acu-Link.com,2013-01-20 14:49:00,
2013-01-20 10:04:00,46.2,20.1,29.67,West,270,2.7,-999.0,35,-99.99,,,0.00,Acu-Link.com,2013-01-20 15:04:00,
2013-01-20 10:20:00,46.0,18.5,29.68,West,270,4.2,-999.0,33,-99.99,,,0.00,Acu-Link.com,2013-01-20 15:20:00,
2013-01-20 10:35:00,45.1,17.7,29.67,WSW,247,6.8,-999.0,33,-99.99,,,0.00,Acu-Link.com,2013-01-20 15:35:00,
2013-01-20 10:50:00,45.7,19.0,29.68,SSW,202,3.2,-999.0,34,-99.99,,,0.00,Acu-Link.com,2013-01-20 15:50:00,
2013-01-20 11:05:00,47.3,19.7,29.67,SW,225,1.7,-999.0,33,-99.99,,,0.00,Acu-Link.com,2013-01-20 16:05:00,
2013-01-20 11:20:00,47.5,18.4,29.67,West,270,6.3,-999.0,31,-99.99,,,0.00,Acu-Link.com,2013-01-20 16:20:00,
2013-01-20 11:36:00,46.6,17.6,29.68,WSW,247,5.3,-999.0,31,-99.99,,,0.00,Acu-Link.com,2013-01-20 16:36:00,
2013-01-20 11:51:00,46.2,19.4,29.68,West,270,3.7,-999.0,34,-99.99,,,0.00,Acu-Link.com,2013-01-20 16:51:00,
2013-01-20 12:06:00,45.3,19.3,29.69,West,270,3.7,-999.0,35,-99.99,,,0.00,Acu-Link.com,2013-01-20 17:06:00,
2013-01-20 12:21:00,44.4,15.7,29.70,SW,225,5.8,-999.0,31,-99.99,,,0.00,Acu-Link.com,2013-01-20 17:21:00,
2013-01-20 12:37:00,45.1,17.0,29.70,WSW,247,6.8,-999.0,32,-99.99,,,0.00,Acu-Link.com,2013-01-20 17:37:00,
2013-01-20 12:52:00,45.1,18.4,29.71,NW,315,4.2,-999.0,34,-99.99,,,0.00,Acu-Link.com,2013-01-20 17:52:00,
2013-01-20 13:07:00,43.7,18.5,29.72,NNW,337,2.7,-999.0,36,-99.99,,,0.00,Acu-Link.com,2013-01-20 18:07:00,
2013-01-20 13:22:00,42.8,19.0,29.73,West,270,4.7,-999.0,38,-99.99,,,0.00,Acu-Link.com,2013-01-20 18:22:00,
2013-01-20 13:37:00,41.9,19.4,29.74,West,270,5.3,-999.0,40,-99.99,,,0.00,Acu-Link.com,2013-01-20 18:37:00,
2013-01-20 13:53:00,40.5,18.1,29.76,West,270,4.7,-999.0,40,-99.99,,,0.00,Acu-Link.com,2013-01-20 18:53:00,
2013-01-20 14:08:00,39.4,15.3,29.76,West,270,6.8,-999.0,37,-99.99,,,0.00,Acu-Link.com,2013-01-20 19:08:00,
2013-01-20 14:23:00,38.1,13.5,29.77,West,270,4.2,-999.0,36,-99.99,,,0.00,Acu-Link.com,2013-01-20 19:23:00,
2013-01-20 14:38:00,37.0,13.8,29.79,SW,225,6.3,-999.0,38,-99.99,,,0.00,Acu-Link.com,2013-01-20 19:38:00,
2013-01-20 14:53:00,36.3,12.6,29.81,SW,225,7.8,-999.0,37,-99.99,,,0.00,Acu-Link.com,2013-01-20 19:53:00,
2013-01-20 15:09:00,35.8,12.7,29.83,SW,225,3.2,-999.0,38,-99.99,,,0.00,Acu-Link.com,2013-01-20 20:09:00,
2013-01-20 15:24:00,35.4,12.9,29.83,North,0,3.2,-999.0,39,-99.99,,,0.00,Acu-Link.com,2013-01-20 20:24:00,
2013-01-20 15:39:00,34.2,11.9,29.84,West,270,3.2,-999.0,39,-99.99,,,0.00,Acu-Link.com,2013-01-20 20:39:00,
2013-01-20 15:54:00,34.2,12.4,29.85,West,270,4.2,-999.0,40,-99.99,,,0.00,Acu-Link.com,2013-01-20 20:54:00,
2013-01-20 16:09:00,32.7,11.6,29.85,SW,225,4.2,-999.0,41,-99.99,,,0.00,Acu-Link.com,2013-01-20 21:09:00,
2013-01-20 16:25:00,32.2,12.2,29.87,West,270,2.2,-999.0,43,-99.99,,,0.00,Acu-Link.com,2013-01-20 21:25:00,
2013-01-20 16:40:00,30.9,11.6,29.88,West,270,2.7,-999.0,44,-99.99,,,0.00,Acu-Link.com,2013-01-20 21:40:00,
2013-01-20 16:55:00,29.7,11.5,29.88,SW,225,2.2,-999.0,46,-99.99,,,0.00,Acu-Link.com,2013-01-20 21:55:00,
2013-01-20 17:10:00,28.2,10.1,29.89,SW,225,4.2,-999.0,46,-99.99,,,0.00,Acu-Link.com,2013-01-20 22:10:00,
2013-01-20 17:26:00,27.7,10.6,29.89,SW,225,1.7,-999.0,48,-99.99,,,0.00,Acu-Link.com,2013-01-20 22:26:00,
2013-01-20 17:41:00,27.1,10.5,29.91,WSW,247,2.7,-999.0,49,-99.99,,,0.00,Acu-Link.com,2013-01-20 22:41:00,
2013-01-20 17:56:00,27.1,10.5,29.91,SW,225,3.2,-999.0,49,-99.99,,,0.00,Acu-Link.com,2013-01-20 22:56:00,
2013-01-20 18:26:00,26.4,11.2,29.94,West,270,2.7,-999.0,52,-99.99,,,0.00,Acu-Link.com,2013-01-20 23:26:00,
2013-01-20 18:42:00,25.9,10.3,29.95,WNW,292,4.2,-999.0,51,-99.99,,,0.00,Acu-Link.com,2013-01-20 23:42:00,
2013-01-20 19:12:00,25.3,10.2,29.96,WNW,292,2.2,-999.0,52,-99.99,,,0.00,Acu-Link.com,2013-01-21 00:12:00,
2013-01-20 19:27:00,25.0,10.3,29.95,SW,225,2.2,-999.0,53,-99.99,,,0.00,Acu-Link.com,2013-01-21 00:27:00,
2013-01-20 19:43:00,24.6,9.9,29.96,SW,225,2.2,-999.0,53,-99.99,,,0.00,Acu-Link.com,2013-01-21 00:43:00,
2013-01-20 19:58:00,24.3,10.5,29.96,SSE,157,2.7,-999.0,55,-99.99,,,0.00,Acu-Link.com,2013-01-21 00:58:00,
2013-01-20 20:13:00,23.7,9.9,29.96,West,270,2.2,-999.0,55,-99.99,,,0.00,Acu-Link.com,2013-01-21 01:13:00,
2013-01-20 20:28:00,23.5,8.9,29.96,West,270,2.2,-999.0,53,-99.99,,,0.00,Acu-Link.com,2013-01-21 01:28:00,
2013-01-20 20:44:00,23.2,9.5,29.97,West,270,2.7,-999.0,55,-99.99,,,0.00,Acu-Link.com,2013-01-21 01:44:00,
2013-01-20 20:59:00,22.8,9.1,29.98,WSW,247,1.1,-999.0,55,-99.99,,,0.00,Acu-Link.com,2013-01-21 01:59:00,
2013-01-20 21:14:00,22.5,9.2,29.98,West,270,1.7,-999.0,56,-99.99,,,0.00,Acu-Link.com,2013-01-21 02:14:00,
2013-01-20 21:29:00,22.5,9.6,29.98,SW,225,0.0,-999.0,57,-99.99,,,0.00,Acu-Link.com,2013-01-21 02:29:00,
2013-01-20 21:44:00,22.1,9.2,29.99,WSW,247,2.2,-999.0,57,-99.99,,,0.00,Acu-Link.com,2013-01-21 02:44:00,
2013-01-20 22:00:00,22.1,8.4,29.98,West,270,2.7,-999.0,55,-99.99,,,0.00,Acu-Link.com,2013-01-21 03:00:00,
2013-01-20 22:15:00,22.1,7.6,29.99,SW,225,2.2,-999.0,53,-99.99,,,0.00,Acu-Link.com,2013-01-21 03:15:00,
2013-01-20 22:30:00,22.3,7.4,29.98,West,270,3.7,-999.0,52,-99.99,,,0.00,Acu-Link.com,2013-01-21 03:30:00,
2013-01-20 22:45:00,21.7,8.1,29.98,SW,225,2.2,-999.0,55,-99.99,,,0.00,Acu-Link.com,2013-01-21 03:45:00,
2013-01-20 23:00:00,21.2,7.6,29.98,SSW,202,1.7,-999.0,55,-99.99,,,0.00,Acu-Link.com,2013-01-21 04:00:00,
2013-01-20 23:16:00,20.7,8.3,29.97,West,270,1.7,-999.0,58,-99.99,,,0.00,Acu-Link.com,2013-01-21 04:16:00,
2013-01-20 23:31:00,19.9,8.7,29.98,North,0,0.0,-999.0,61,-99.99,,,0.00,Acu-Link.com,2013-01-21 04:31:00,
2013-01-20 23:46:00,19.2,8.3,29.97,South,180,0.0,-999.0,62,-99.99,,,0.00,Acu-Link.com,2013-01-21 04:46:00,